Anton, TX (79313)

9:07 PM CDT on August 29, 2015 (GMT -0500)
WT_Meso | | Change Station
CLOSE
Current Station
Personal Weather Station
Location: Anton, TX
Elevation: 3404 ft
Nearby Weather Stations

Elev 3404 ft 33.73 °N, 102.19 °W | Updated 42 minutes ago

Partly Cloudy
Partly Cloudy
73 °F
Feels Like 77 °F
N
5
Wind Variable Wind from South
Gusts 6.0 mph

Today
High -- | Low -- °F
--% Chance of Precip.
Yesterday
High -- | Low -- °F
Precip. -- in
7:20 AM 8:18 PM
Full, 100% visible
Pressure 29.96 in
Visibility 10.0 miles
Clouds Few 12000 ft
Scattered Clouds 18000 ft
Mostly Cloudy 26000 ft
Mostly Cloudy 30000 ft
Heat Index 77 °F
Dew Point 57 °F
Humidity 59%
Rainfall in
Snow Depth Not available.
UV 0 out of 12
Pollen 7.70 out of 12
Air Quality Not available.
Flu Activity Not available.
METAR KLBB 300153Z COR 21007KT 10SM FEW120 SCT180 BKN260 BKN300 24/11 A3009 RMK AO2 SLP143 T02440111
Pressure 29.96 in
Visibility 10.0 miles
Clouds Few 12000 ft
Scattered Clouds 18000 ft
Mostly Cloudy 26000 ft
Mostly Cloudy 30000 ft
Heat Index 77 °F
Dew Point 57 °F
Humidity 59%
Rainfall in
Snow Depth Not available.
UV 0 out of 12
Pollen 7.70 out of 12
Air Quality Not available.
Flu Activity Not available.
METAR KLBB 300153Z COR 21007KT 10SM FEW120 SCT180 BKN260 BKN300 24/11 A3009 RMK AO2 SLP143 T02440111

10-Day Weather Forecast

×

Almanac

Astronomy

Aug. 29, 2015 Rise Set
Actual Time
Civil Twilight
Nautical Twilight
Astronomical Twilight
Moon
Length of Visible Light
Length of Day
Tomorrow will be .
, % of the Moon is Illuminated

Today's Extremes

State Highs State Lows

Community

WunderPhotos

Upload Photos

1,850,847 photos uploaded!

WunderBlogs® & News

Nearby

Air Quality

  Air Quality AQ Index Pollutant
Not available.

Snow Depth

Station Depth Elevation

Earthquake Activity

City Distance Mag. Time & Date
Minimum magnitude displayed is 2.5.

Coastal Water Temperatures

Place Temperature

Stations

Nearby Weather Stations

Station Location Temp. Windchill Dew Point Humidity Wind Precip. Elev Updated Type